createdAt,value
2023-05-16T00:01:39.540Z,43.46
2023-05-16T00:04:08.421Z,43.50
2023-05-16T00:06:36.730Z,43.65
2023-05-16T00:09:05.038Z,44.03
2023-05-16T00:11:33.051Z,43.76
2023-05-16T00:14:01.579Z,43.57
2023-05-16T00:16:30.539Z,43.74
2023-05-16T00:19:01.081Z,43.35
2023-05-16T00:21:29.510Z,43.44
2023-05-16T00:23:57.497Z,43.33
2023-05-16T00:26:26.326Z,43.69
2023-05-16T00:28:54.612Z,43.20
2023-05-16T00:31:22.882Z,43.49
2023-05-16T00:33:52.834Z,43.67
2023-05-16T00:36:23.900Z,43.85
2023-05-16T00:38:52.107Z,43.63
2023-05-16T00:41:20.224Z,43.72
2023-05-16T00:43:48.196Z,43.87
2023-05-16T00:46:16.463Z,43.72
2023-05-16T00:48:44.718Z,43.99
2023-05-16T00:51:12.822Z,44.06
2023-05-16T00:53:42.327Z,44.00
2023-05-16T00:56:10.694Z,43.83
2023-05-16T00:58:38.870Z,44.35
2023-05-16T01:01:08.151Z,44.09
2023-05-16T01:03:36.461Z,43.77
2023-05-16T01:06:04.758Z,44.26
2023-05-16T01:08:33.811Z,44.05
2023-05-16T01:11:11.323Z,44.06
2023-05-16T01:13:49.416Z,44.05
2023-05-16T01:16:23.421Z,44.48
2023-05-16T01:19:01.957Z,44.18
2023-05-16T01:21:43.622Z,44.17
2023-05-16T01:24:17.219Z,44.37
2023-05-16T01:26:47.971Z,44.58
2023-05-16T01:29:17.381Z,44.51
2023-05-16T01:31:45.443Z,44.53
2023-05-16T01:34:13.762Z,44.17
2023-05-16T01:36:47.789Z,44.56
2023-05-16T01:39:20.954Z,44.31
2023-05-16T01:41:57.572Z,44.63
2023-05-16T01:44:30.709Z,44.45
2023-05-16T01:47:02.917Z,44.45
2023-05-16T01:49:37.116Z,44.29
2023-05-16T01:52:10.419Z,43.98
2023-05-16T01:54:40.570Z,43.94
2023-05-16T01:57:10.644Z,44.38
2023-05-16T01:59:40.329Z,44.03
2023-05-16T02:02:08.449Z,43.85
2023-05-16T02:04:36.457Z,43.39
2023-05-16T02:07:04.900Z,43.35
2023-05-16T02:09:33.049Z,43.20
2023-05-16T02:12:02.449Z,43.02
2023-05-16T02:14:31.890Z,42.28
2023-05-16T02:17:00.260Z,42.26
2023-05-16T02:19:28.455Z,41.86
2023-05-16T02:21:56.861Z,41.09
2023-05-16T02:24:24.975Z,41.08
2023-05-16T02:26:53.143Z,40.85
2023-05-16T02:29:21.378Z,40.39
2023-05-16T02:31:50.965Z,39.72
2023-05-16T02:34:18.999Z,39.50
2023-05-16T02:36:48.333Z,39.05
2023-05-16T02:39:16.322Z,39.13
2023-05-16T02:41:44.335Z,38.03
2023-05-16T02:44:12.339Z,37.45
2023-05-16T02:46:40.433Z,36.96
2023-05-16T02:49:09.928Z,36.94
2023-05-16T02:51:37.972Z,36.50
2023-05-16T02:54:09.322Z,35.55
2023-05-16T02:56:37.454Z,35.41
2023-05-16T02:59:06.081Z,34.80
2023-05-16T03:01:34.416Z,34.41
2023-05-16T03:04:02.724Z,34.03
2023-05-16T03:06:33.300Z,33.43
2023-05-16T03:09:01.422Z,32.15
2023-05-16T03:11:29.531Z,31.36
2023-05-16T03:14:01.580Z,31.09
2023-05-16T03:16:30.546Z,29.70
2023-05-16T03:18:58.713Z,29.35
2023-05-16T03:21:27.984Z,29.62
2023-05-16T03:23:58.334Z,28.72
2023-05-16T03:26:26.696Z,28.18
2023-05-16T03:28:54.724Z,28.39
2023-05-16T03:31:22.888Z,28.30
2023-05-16T03:33:51.228Z,28.47
2023-05-16T03:36:19.996Z,29.08
2023-05-16T03:38:48.032Z,29.47
2023-05-16T03:41:17.434Z,30.16
2023-05-16T03:43:45.451Z,31.35
2023-05-16T03:46:13.515Z,31.57
2023-05-16T03:48:41.518Z,32.49
2023-05-16T03:51:09.516Z,33.20
2023-05-16T03:53:38.514Z,33.92
2023-05-16T03:56:06.857Z,34.28
2023-05-16T03:58:36.238Z,34.04
2023-05-16T04:01:04.763Z,33.10
2023-05-16T04:03:33.711Z,31.18
2023-05-16T04:06:01.985Z,28.46
2023-05-16T04:08:30.042Z,26.76
2023-05-16T04:10:58.102Z,27.01
2023-05-16T04:13:26.845Z,25.92
2023-05-16T04:15:56.283Z,24.23
2023-05-16T04:18:24.382Z,22.83
2023-05-16T04:20:52.346Z,22.23
2023-05-16T04:23:20.546Z,22.90
2023-05-16T04:25:48.537Z,22.52
2023-05-16T04:28:16.595Z,23.26
2023-05-16T04:30:45.385Z,22.52
2023-05-16T04:33:14.899Z,22.63
2023-05-16T04:35:43.153Z,23.37
2023-05-16T04:38:11.088Z,22.73
2023-05-16T04:40:40.444Z,22.71
2023-05-16T04:43:08.590Z,22.21
2023-05-16T04:45:37.790Z,21.26
2023-05-16T04:48:06.488Z,20.83
2023-05-16T04:50:36.034Z,20.12
2023-05-16T04:53:04.071Z,19.50
2023-05-16T04:55:32.145Z,19.72
2023-05-16T04:58:00.212Z,20.06
2023-05-16T05:00:28.492Z,19.79
2023-05-16T05:02:56.867Z,19.84
2023-05-16T05:05:25.221Z,19.79
2023-05-16T05:07:54.779Z,19.51
2023-05-16T05:10:22.822Z,20.41
2023-05-16T05:12:50.867Z,20.50
2023-05-16T05:15:19.442Z,21.21
2023-05-16T05:17:47.554Z,21.11
2023-05-16T05:20:15.716Z,21.47
2023-05-16T05:22:43.813Z,21.10
2023-05-16T05:25:13.213Z,21.28
2023-05-16T05:27:41.377Z,20.42
2023-05-16T05:30:10.211Z,20.35
2023-05-16T05:32:38.473Z,19.75
2023-05-16T05:35:07.619Z,19.58
2023-05-16T05:37:36.257Z,20.09
2023-05-16T05:40:04.898Z,19.44
2023-05-16T05:42:35.839Z,19.44
2023-05-16T05:45:04.656Z,19.71
2023-05-16T05:47:33.260Z,18.76
2023-05-16T05:50:02.405Z,18.19
2023-05-16T05:52:30.596Z,17.82
2023-05-16T05:54:59.576Z,17.44
2023-05-16T05:57:27.562Z,17.67
2023-05-16T05:59:56.924Z,18.02
2023-05-16T06:02:25.142Z,18.83
2023-05-16T06:04:53.409Z,19.54
2023-05-16T06:07:21.573Z,18.69
2023-05-16T06:09:49.784Z,18.18
2023-05-16T06:12:17.987Z,17.11
2023-05-16T06:14:46.088Z,16.37
2023-05-16T06:17:15.619Z,15.88
2023-05-16T06:19:43.744Z,15.76
2023-05-16T06:22:11.785Z,14.88
2023-05-16T06:24:39.913Z,14.57
2023-05-16T06:27:08.393Z,14.49
2023-05-16T06:29:36.652Z,13.97
2023-05-16T06:32:04.781Z,13.77
2023-05-16T06:34:34.236Z,14.37
2023-05-16T06:37:03.729Z,14.54
2023-05-16T06:39:31.967Z,14.84
2023-05-16T06:42:00.132Z,13.77
2023-05-16T06:44:33.546Z,12.94
2023-05-16T06:47:01.767Z,12.82
2023-05-16T06:49:29.887Z,12.29
2023-05-16T06:51:59.283Z,12.44
2023-05-16T06:54:27.392Z,12.99
2023-05-16T06:56:55.476Z,13.23
2023-05-16T06:59:24.596Z,13.24
2023-05-16T07:01:53.402Z,12.65
2023-05-16T07:04:21.530Z,13.03
2023-05-16T07:06:49.597Z,12.85
2023-05-16T07:09:19.059Z,11.74
2023-05-16T07:11:47.236Z,12.66
2023-05-16T07:14:15.382Z,13.36
2023-05-16T07:16:44.228Z,12.76
2023-05-16T07:19:12.509Z,13.55
2023-05-16T07:21:40.606Z,13.05
2023-05-16T07:24:09.012Z,13.31
2023-05-16T07:26:38.555Z,13.29
2023-05-16T07:29:06.640Z,14.28
2023-05-16T07:31:34.728Z,14.70
2023-05-16T07:34:03.621Z,15.16
2023-05-16T07:36:31.752Z,15.79
2023-05-16T07:38:59.795Z,14.99
2023-05-16T07:41:27.963Z,14.43
2023-05-16T07:43:57.499Z,13.65
2023-05-16T07:46:25.651Z,14.01
2023-05-16T07:48:53.821Z,15.17
2023-05-16T07:51:21.928Z,15.68
2023-05-16T07:53:50.046Z,16.10
2023-05-16T07:56:18.281Z,15.36
2023-05-16T07:58:48.901Z,15.52
2023-05-16T08:01:18.570Z,15.94
2023-05-16T08:03:46.661Z,15.96
2023-05-16T08:06:14.802Z,16.61
2023-05-16T08:08:43.392Z,16.16
2023-05-16T08:11:11.670Z,16.18
2023-05-16T08:13:39.769Z,15.95
2023-05-16T08:16:08.155Z,16.25
2023-05-16T08:18:37.683Z,15.70
2023-05-16T08:21:06.192Z,16.97
2023-05-16T08:23:34.179Z,17.42
2023-05-16T08:26:03.075Z,17.97
2023-05-16T08:28:31.170Z,17.98
2023-05-16T08:30:59.391Z,18.21
2023-05-16T08:33:27.553Z,18.64
2023-05-16T08:35:57.145Z,19.01
2023-05-16T08:38:25.357Z,19.53
2023-05-16T08:40:53.473Z,19.38
2023-05-16T08:43:21.714Z,19.96
2023-05-16T08:45:50.541Z,20.19
2023-05-16T08:48:23.970Z,19.99
2023-05-16T08:50:53.397Z,20.37
2023-05-16T08:53:25.523Z,20.67
2023-05-16T08:55:55.472Z,20.74
2023-05-16T08:58:23.945Z,20.83
2023-05-16T09:00:52.154Z,20.94
2023-05-16T09:03:21.537Z,21.23
2023-05-16T09:05:50.688Z,22.18
2023-05-16T09:08:20.402Z,22.21
2023-05-16T09:10:49.890Z,22.28
2023-05-16T09:13:17.906Z,22.76
2023-05-16T09:15:46.654Z,22.75
2023-05-16T09:18:15.116Z,22.66
2023-05-16T09:20:47.910Z,23.24
2023-05-16T09:23:16.052Z,22.78
2023-05-16T09:25:44.102Z,22.48
2023-05-16T09:28:13.754Z,22.74
2023-05-16T09:30:42.662Z,22.36
2023-05-16T09:33:10.834Z,22.89
2023-05-16T09:35:45.328Z,22.79
2023-05-16T09:38:18.438Z,22.44
2023-05-16T09:40:47.455Z,22.36
2023-05-16T09:43:18.685Z,22.81
2023-05-16T09:45:48.206Z,22.59
2023-05-16T09:48:18.078Z,22.76
2023-05-16T09:50:52.365Z,23.01
2023-05-16T09:53:27.500Z,23.46
2023-05-16T09:56:03.452Z,23.59
2023-05-16T09:58:34.897Z,23.11
2023-05-16T10:01:03.537Z,23.26
2023-05-16T10:03:31.863Z,23.66
2023-05-16T10:06:01.244Z,23.44
2023-05-16T10:08:32.321Z,23.54
2023-05-16T10:11:00.594Z,23.72
2023-05-16T10:13:31.224Z,23.68
2023-05-16T10:16:03.078Z,23.25
2023-05-16T10:18:33.199Z,22.92
2023-05-16T10:21:08.304Z,22.95
2023-05-16T10:23:41.413Z,22.85
2023-05-16T10:26:10.437Z,22.97
2023-05-16T10:28:38.861Z,23.40
2023-05-16T10:31:09.595Z,22.81
2023-05-16T10:33:38.092Z,22.88
2023-05-16T10:36:07.077Z,22.84
2023-05-16T10:38:35.989Z,22.38
2023-05-16T10:41:04.598Z,22.07
2023-05-16T10:43:33.737Z,22.03
2023-05-16T10:46:05.326Z,22.72
2023-05-16T10:48:37.786Z,22.86
2023-05-16T10:51:36.553Z,22.59
2023-05-16T10:54:10.559Z,22.69
2023-05-16T10:56:39.133Z,22.49
2023-05-16T10:59:24.172Z,22.56
2023-05-16T11:01:54.781Z,22.32
2023-05-16T11:04:24.543Z,22.01
2023-05-16T11:06:54.758Z,22.44
2023-05-16T11:09:28.307Z,22.58
2023-05-16T11:12:04.011Z,22.45
2023-05-16T11:14:38.401Z,21.97
2023-05-16T11:17:12.556Z,22.18
2023-05-16T11:19:45.376Z,22.18
2023-05-16T11:22:25.338Z,21.58
2023-05-16T11:24:57.180Z,21.67
2023-05-16T11:27:28.460Z,22.12
2023-05-16T11:30:02.804Z,21.95
2023-05-16T11:32:33.282Z,21.82
2023-05-16T11:35:03.982Z,22.24
2023-05-16T11:37:32.712Z,22.13
2023-05-16T11:40:01.821Z,22.62
2023-05-16T11:42:33.992Z,22.42
2023-05-16T11:45:07.512Z,22.87
2023-05-16T11:47:38.218Z,22.57
2023-05-16T11:50:10.062Z,22.43
2023-05-16T11:52:38.619Z,22.42
2023-05-16T11:55:08.075Z,22.55
2023-05-16T11:57:36.351Z,22.77
2023-05-16T12:00:08.121Z,22.88
2023-05-16T12:02:36.516Z,22.90
2023-05-16T12:05:10.668Z,22.60
2023-05-16T12:07:39.221Z,22.82
2023-05-16T12:10:08.929Z,22.71
2023-05-16T12:12:38.033Z,22.90
2023-05-16T12:15:10.398Z,23.20
2023-05-16T12:17:40.082Z,23.15
2023-05-16T12:20:14.404Z,23.74
2023-05-16T12:22:43.186Z,23.58
2023-05-16T12:25:24.019Z,23.73
2023-05-16T12:27:54.417Z,24.09
2023-05-16T12:30:24.838Z,24.12
2023-05-16T12:32:59.638Z,24.27
2023-05-16T12:35:32.500Z,24.37
2023-05-16T12:38:01.300Z,24.36
2023-05-16T12:40:30.276Z,24.17
2023-05-16T12:42:58.930Z,24.16
2023-05-16T12:45:34.044Z,24.13
2023-05-16T12:48:07.862Z,24.30
2023-05-16T12:50:37.420Z,24.11
2023-05-16T12:53:05.568Z,24.03
2023-05-16T12:55:34.133Z,24.17
2023-05-16T12:58:02.609Z,24.20
2023-05-16T13:00:31.777Z,24.13
2023-05-16T13:03:00.125Z,24.39
2023-05-16T13:05:28.338Z,24.33
2023-05-16T13:07:57.762Z,24.11
2023-05-16T13:10:26.214Z,23.99
2023-05-16T13:12:54.521Z,24.28
2023-05-16T13:15:22.538Z,23.87
2023-05-16T13:17:51.317Z,24.04
2023-05-16T13:20:20.930Z,24.35
2023-05-16T13:22:49.062Z,24.30
2023-05-16T13:25:18.514Z,24.18
2023-05-16T13:27:49.428Z,24.18
2023-05-16T13:30:17.967Z,24.40
2023-05-16T13:32:46.118Z,24.43
2023-05-16T13:35:14.201Z,24.30
2023-05-16T13:37:42.329Z,24.23
2023-05-16T13:40:11.324Z,24.26
2023-05-16T13:42:41.159Z,24.27
2023-05-16T13:45:10.025Z,24.28
2023-05-16T13:47:38.190Z,24.45
2023-05-16T13:50:10.237Z,24.30
2023-05-16T13:52:38.491Z,25.03
2023-05-16T13:55:08.329Z,24.75
2023-05-16T13:57:36.662Z,25.12
2023-05-16T14:02:44.433Z,25.39
2023-05-16T14:05:12.646Z,25.31
2023-05-16T14:07:40.684Z,25.21
2023-05-16T14:10:10.303Z,25.61
2023-05-16T14:12:38.568Z,26.71
2023-05-16T14:15:09.583Z,27.69
2023-05-16T14:17:38.077Z,29.94
2023-05-16T14:20:10.778Z,31.26
2023-05-16T14:22:39.071Z,32.31
2023-05-16T14:25:08.312Z,33.29
2023-05-16T14:27:36.470Z,33.37
2023-05-16T14:30:04.941Z,33.84
2023-05-16T14:32:34.494Z,34.91
2023-05-16T14:35:02.601Z,34.81
2023-05-16T14:37:32.369Z,35.44
2023-05-16T14:40:00.938Z,36.39
2023-05-16T14:42:29.363Z,35.97
2023-05-16T14:44:57.934Z,36.79
2023-05-16T14:47:26.051Z,37.33
2023-05-16T14:49:56.324Z,37.78
2023-05-16T14:52:24.525Z,37.92
2023-05-16T14:54:52.666Z,37.98
2023-05-16T14:57:20.729Z,38.24
2023-05-16T14:59:50.569Z,39.04
2023-05-16T15:02:18.729Z,40.07
2023-05-16T15:04:46.815Z,40.22
2023-05-16T15:07:16.409Z,40.30
2023-05-16T15:09:44.419Z,40.80
2023-05-16T15:12:12.482Z,41.12
2023-05-16T15:14:40.642Z,42.42
2023-05-16T15:17:09.188Z,43.28
2023-05-16T15:19:37.649Z,43.75
2023-05-16T15:22:07.886Z,43.65
2023-05-16T15:24:37.688Z,44.20
2023-05-16T15:27:06.161Z,44.84
2023-05-16T15:29:34.220Z,45.45
2023-05-16T15:32:05.462Z,44.94
2023-05-16T15:34:34.810Z,44.86
2023-05-16T15:37:02.916Z,45.76
2023-05-16T15:39:31.032Z,45.87
2023-05-16T15:42:10.713Z,46.62
2023-05-16T15:44:39.944Z,46.25
2023-05-16T15:47:08.886Z,46.40
2023-05-16T15:49:37.034Z,45.98
2023-05-16T15:52:06.154Z,46.21
2023-05-16T15:54:34.415Z,46.46
2023-05-16T15:57:03.861Z,46.83
2023-05-16T15:59:31.928Z,47.15
2023-05-16T16:02:00.004Z,47.12
2023-05-16T16:04:28.006Z,47.96
2023-05-16T16:06:56.231Z,47.80
2023-05-16T16:09:24.392Z,48.03
2023-05-16T16:11:56.204Z,48.65
2023-05-16T16:14:26.612Z,48.87
2023-05-16T16:16:54.802Z,48.80
2023-05-16T16:19:23.285Z,48.98
2023-05-16T16:21:51.681Z,48.92
2023-05-16T16:24:20.938Z,48.84
2023-05-16T16:26:49.024Z,49.34
2023-05-16T16:29:17.272Z,49.39
2023-05-16T16:31:46.788Z,49.55
2023-05-16T16:34:14.860Z,50.05
2023-05-16T16:36:42.985Z,49.76
2023-05-16T16:39:11.575Z,49.69
2023-05-16T16:41:40.775Z,50.12
2023-05-16T16:44:08.983Z,50.03
2023-05-16T16:46:38.759Z,50.07
2023-05-16T16:49:08.278Z,50.32
2023-05-16T16:51:36.717Z,50.60
2023-05-16T16:54:04.963Z,50.82
2023-05-16T16:56:33.124Z,50.93
2023-05-16T16:59:01.416Z,51.01
2023-05-16T17:01:32.078Z,50.97
2023-05-16T17:04:00.785Z,51.45
2023-05-16T17:06:30.364Z,51.17
2023-05-16T17:09:02.378Z,51.39
2023-05-16T17:11:30.988Z,51.30
2023-05-16T17:13:59.769Z,51.98
2023-05-16T17:16:29.397Z,52.07
2023-05-16T17:18:57.888Z,52.34
2023-05-16T17:21:26.805Z,51.69
2023-05-16T17:23:58.297Z,52.14
2023-05-16T17:26:27.434Z,52.43
2023-05-16T17:28:56.499Z,52.66
2023-05-16T17:31:24.587Z,52.56
2023-05-16T17:33:53.262Z,52.41
2023-05-16T17:36:21.771Z,52.91
2023-05-16T17:38:49.897Z,52.48
2023-05-16T17:41:19.935Z,52.90
2023-05-16T17:43:48.377Z,52.49
2023-05-16T17:46:16.498Z,52.50
2023-05-16T17:48:45.245Z,52.83
2023-05-16T17:51:13.336Z,52.86
2023-05-16T17:53:41.702Z,52.72
2023-05-16T17:56:10.138Z,52.91
2023-05-16T17:58:39.542Z,53.32
2023-05-16T18:01:09.321Z,52.58
2023-05-16T18:03:37.593Z,52.31
2023-05-16T18:06:05.953Z,52.46
2023-05-16T18:08:34.195Z,52.22
2023-05-16T18:11:02.409Z,52.44
2023-05-16T18:13:31.227Z,52.11
2023-05-16T18:16:00.693Z,52.01
2023-05-16T18:18:28.821Z,51.40
2023-05-16T18:20:56.879Z,51.44
2023-05-16T18:23:25.473Z,51.76
2023-05-16T18:25:54.101Z,51.41
2023-05-16T18:28:22.596Z,51.56
2023-05-16T18:30:52.736Z,51.55
2023-05-16T18:33:22.750Z,51.57
2023-05-16T18:35:50.860Z,51.71
2023-05-16T18:38:31.363Z,52.23
2023-05-16T18:41:00.746Z,52.18
2023-05-16T18:43:28.857Z,52.92
2023-05-16T18:45:57.871Z,52.44
2023-05-16T18:48:27.528Z,53.29
2023-05-16T18:50:55.943Z,54.07
2023-05-16T18:53:24.101Z,54.13
2023-05-16T18:55:52.634Z,54.16
2023-05-16T18:58:21.373Z,55.63
2023-05-16T19:00:49.956Z,55.97
2023-05-16T19:03:18.254Z,55.55
2023-05-16T19:05:47.924Z,55.59
2023-05-16T19:08:16.347Z,55.71
2023-05-16T19:10:44.464Z,55.59
2023-05-16T19:13:12.524Z,55.44
2023-05-16T19:15:40.643Z,55.35
2023-05-16T19:18:08.812Z,55.68
2023-05-16T19:20:37.725Z,55.85
2023-05-16T19:23:07.206Z,55.98
2023-05-16T19:25:35.513Z,55.90
2023-05-16T19:28:03.605Z,56.19
2023-05-16T19:30:31.741Z,55.45
2023-05-16T19:32:59.756Z,55.55
2023-05-16T19:35:29.141Z,55.33
2023-05-16T19:37:57.954Z,55.56
2023-05-16T19:40:27.371Z,55.48
2023-05-16T19:42:55.501Z,55.27
2023-05-16T19:45:23.759Z,54.91
2023-05-16T19:47:52.012Z,55.22
2023-05-16T19:50:20.498Z,55.27
2023-05-16T19:52:48.541Z,55.36
2023-05-16T19:55:16.694Z,54.96
2023-05-16T19:57:46.783Z,54.89
2023-05-16T20:00:16.032Z,55.08
2023-05-16T20:02:44.310Z,55.52
2023-05-16T20:05:12.761Z,55.41
2023-05-16T20:07:41.324Z,54.84
2023-05-16T20:10:10.783Z,55.34
2023-05-16T20:12:39.172Z,55.29
2023-05-16T20:15:11.085Z,55.22
2023-05-16T20:17:40.108Z,55.29
2023-05-16T20:20:09.932Z,55.42
2023-05-16T20:22:41.284Z,55.33
2023-05-16T20:25:10.955Z,55.34
2023-05-16T20:27:39.259Z,55.52
2023-05-16T20:30:10.025Z,55.25
2023-05-16T20:32:38.294Z,55.77
2023-05-16T20:35:10.155Z,55.29
2023-05-16T20:37:38.482Z,55.45
2023-05-16T20:40:07.850Z,55.35
2023-05-16T20:42:36.200Z,55.49
2023-05-16T20:45:04.740Z,55.78
2023-05-16T20:47:34.905Z,55.81
2023-05-16T20:50:03.184Z,55.57
2023-05-16T20:52:32.202Z,55.34
2023-05-16T20:55:01.374Z,55.63
2023-05-16T20:57:29.747Z,55.51
2023-05-16T20:59:57.836Z,54.96
2023-05-16T21:02:25.976Z,55.38
2023-05-16T21:04:56.205Z,54.68
2023-05-16T21:07:26.277Z,55.04
2023-05-16T21:09:54.305Z,54.60
2023-05-16T21:12:22.368Z,55.07
2023-05-16T21:14:50.460Z,55.27
2023-05-16T21:17:18.516Z,55.60
2023-05-16T21:19:46.609Z,55.40
2023-05-16T21:22:16.094Z,55.19
2023-05-16T21:24:44.170Z,55.93
2023-05-16T21:27:12.218Z,55.70
2023-05-16T21:29:40.377Z,56.14
2023-05-16T21:32:09.237Z,55.77
2023-05-16T21:34:37.265Z,56.00
2023-05-16T21:37:07.324Z,56.06
2023-05-16T21:39:36.791Z,55.87
2023-05-16T21:42:05.296Z,55.86
2023-05-16T21:44:33.311Z,55.65
2023-05-16T21:47:01.295Z,55.83
2023-05-16T21:49:29.438Z,56.26
2023-05-16T21:51:57.571Z,55.56
2023-05-16T21:54:26.019Z,55.44
2023-05-16T21:56:55.479Z,55.35
2023-05-16T21:59:23.493Z,55.61
2023-05-16T22:01:51.568Z,55.89
2023-05-16T22:04:19.841Z,55.79
2023-05-16T22:06:48.037Z,55.40
2023-05-16T22:09:16.084Z,55.81
2023-05-16T22:11:44.251Z,55.69
2023-05-16T22:14:14.024Z,55.92
2023-05-16T22:16:42.122Z,55.24
2023-05-16T22:19:10.145Z,55.55
2023-05-16T22:21:38.220Z,55.69
2023-05-16T22:24:06.967Z,55.56
2023-05-16T22:26:35.235Z,55.62
2023-05-16T22:29:03.402Z,55.51
2023-05-16T22:31:32.876Z,55.07
2023-05-16T22:34:01.768Z,55.12
2023-05-16T22:36:29.968Z,54.92
2023-05-16T22:38:58.132Z,55.46
2023-05-16T22:41:26.129Z,55.07
2023-05-16T22:43:54.218Z,55.15
2023-05-16T22:46:22.249Z,55.50
2023-05-16T22:48:51.622Z,55.40
2023-05-16T22:51:19.741Z,55.02
2023-05-16T22:53:47.878Z,55.54
2023-05-16T22:56:16.069Z,55.08
2023-05-16T22:58:44.150Z,55.41
2023-05-16T23:01:12.254Z,55.53
2023-05-16T23:03:40.417Z,55.38
2023-05-16T23:06:09.907Z,55.35
2023-05-16T23:08:37.947Z,55.09
2023-05-16T23:11:06.285Z,55.50
2023-05-16T23:13:34.297Z,55.09
2023-05-16T23:16:02.384Z,55.05
2023-05-16T23:18:30.572Z,55.45
2023-05-16T23:20:58.679Z,55.62
2023-05-16T23:23:28.385Z,55.23
2023-05-16T23:25:56.922Z,55.36
2023-05-16T23:28:26.402Z,55.49
2023-05-16T23:30:54.515Z,55.34
2023-05-16T23:33:22.627Z,55.42
2023-05-16T23:35:50.709Z,55.39
2023-05-16T23:38:18.718Z,55.59
2023-05-16T23:40:48.121Z,55.32
2023-05-16T23:43:16.384Z,55.98
2023-05-16T23:45:44.576Z,55.83
2023-05-16T23:48:12.680Z,55.99
2023-05-16T23:50:41.114Z,56.17
2023-05-16T23:53:09.082Z,56.62
2023-05-16T23:55:37.121Z,56.35
2023-05-16T23:58:06.778Z,56.62
